• Join FlightAware (Why Join?)
  • Login
  • US Flag 
10:40AM EDT


 

Airport Tracker/Info


-or-


 

Live Flight TrackerFlight Track Log ✈ BJS542 ✈ 15-Aug-2013 ✈ KMDW - CYUL

Flight Track Log - Related Links

Times and Time Zones

All times are in EDT time to prevent confusion due to time zone crossing. See the BJS542 flight status page for this flight to view local times or setup timezone preferences in your user account.

Time Position Orientation Groundspeed Altitude Reporting Facility
EDT Latitude Longitude Course Direction KTS MPH feet Rate Location/Type
07:38PM 41.8333 -87.7667 85° East 215 247 3,000  Level Chicago TRACON
07:39PM 41.8244 -87.6747 97° East 262 302 3,200 1,800 Climbing Chicago Center
07:40PM 41.8064 -87.5781 104° East 265 305 6,700 3,600 Climbing Chicago Center
07:41PM 41.7947 -87.4711 98° East 289 333 10,700 3,720 Climbing Chicago Center
07:42PM 41.7869 -87.3600 95° East 298 343 14,400 3,180 Climbing Chicago Center
07:43PM 41.7513 -86.8145 85° East  Level FlightAware Approximate
07:43PM 41.7753 -87.2294 97° East 348 400 17,300  Level Chicago Center
07:44PM 41.7842 -87.0936 85° East 374 430 20,000 2,940 Climbing Chicago Center
07:45PM 41.8167 -86.9236 76° East 394 453 23,400 2,700 Climbing Chicago Center
07:46PM 41.8458 -86.7744 75° East 412 474 25,700 2,040 Climbing Chicago Center
07:47PM 41.8728 -86.6339 76° East 425 489 27,700 1,740 Climbing Chicago Center
07:48PM 41.9033 -86.4692 76° East 451 519 29,400 1,860 Climbing Chicago Center
07:49PM 41.9417 -86.2653 76° East 467 537 31,600 1,800 Climbing Chicago Center
07:50PM 41.9758 -86.0906 75° East 479 551 33,200 1,320 Climbing Chicago Center
07:51PM 42.0081 -85.9122 76° East 487 560 34,400 840 Climbing Chicago Center
07:52PM 42.0447 -85.7117 76° East 495 570 35,000 240 Climbing Chicago Center
07:53PM 42.0783 -85.5311 76° East 500 575 35,000 960 Level Chicago Center
07:54PM 42.1103 -85.3514 76° East 497 572 37,000 1,740 Climbing Chicago Center
07:55PM 42.1417 -85.1742 77° East 490 564 38,700 1,620 Climbing Chicago Center
07:56PM 42.1731 -85.0022 76° East 483 556 40,400 1,440 Climbing Chicago Center
07:57PM 42.2075 -84.8011 77° East 465 535 41,800 900 Climbing Chicago Center
07:58PM 42.2361 -84.6322 77° East 465 535 42,300 480 Climbing Chicago Center
07:59PM 42.2656 -84.4592 77° East 473 544 42,800 480 Climbing Chicago Center
08:00PM 42.3064 -84.2864 72° East 482 555 43,300 540 Climbing Chicago Center
08:01PM 42.3500 -84.1036 72° East 472 543 43,900 540 Climbing Cleveland Center
08:02PM 42.3947 -83.9347 70° East 472 543 44,400 480 Climbing Cleveland Center
08:03PM 42.4392 -83.7597 71° East 477 549 44,900 300 Climbing Cleveland Center
08:04PM 42.4769 -83.6011 72° East 477 549 45,000  Climbing Cleveland Center
08:05PM 42.5211 -83.4200 72° East 487 560 45,000  Level Cleveland Center
08:06PM 42.5608 -83.2442 73° East 487 560 45,000  Level Cleveland Center
08:07PM 42.6022 -83.0628 73° East 492 566 45,000  Level Cleveland Center
08:08PM 42.6456 -82.8867 71° East 492 566 45,000  Level Cleveland Center
08:09PM 42.6864 -82.7100 72° East 492 566 45,000  Level Cleveland Center
08:10PM 42.7292 -82.5306 72° East 497 572 45,000  Level Cleveland Center
08:11PM 42.7697 -82.3481 73° East 497 572 45,000  Level Cleveland Center
08:12PM 42.8097 -82.1708 73° East 497 572 45,000  Level Cleveland Center
08:14PM 42.8833 -81.8000 75° East 500 575 45,000  Level Toronto Center
08:15PM 42.9333 -81.6167 70° East 500 575 45,000  Level Toronto Center
08:16PM 42.9667 -81.4333 76° East 500 575 45,000  Level Toronto Center
08:17PM 43.0333 -81.2500 64° Northeast 500 575 45,000  Level Toronto Center
08:18PM 43.0833 -81.1000 65° Northeast 500 575 45,000  Level Toronto Center
08:19PM 43.1500 -80.9167 63° Northeast 500 575 45,000  Level Toronto Center
08:20PM 43.2167 -80.7500 61° Northeast 500 575 45,000  Level Toronto Center
08:21PM 43.2833 -80.5667 63° Northeast 500 575 45,000  Level Toronto Center
08:22PM 43.3333 -80.4167 65° Northeast 500 575 45,000  Level Toronto Center
08:23PM 43.4000 -80.2333 63° Northeast 500 575 45,000  Level Toronto Center
08:24PM 43.4500 -80.0667 67° East 500 575 45,000  Level Toronto Center
08:25PM 43.5167 -79.8833 63° Northeast 500 575 45,000  Level Toronto Center
08:26PM 43.5667 -79.7167 67° East 500 575 45,000  Level Toronto Center
08:27PM 43.6333 -79.5333 63° Northeast 500 575 45,000  Level Toronto Center
08:28PM 43.6833 -79.3500 69° East 500 575 45,000  Level Toronto Center
08:29PM 43.7500 -79.2000 58° Northeast 490 564 45,000  Level Toronto Center
08:30PM 43.8000 -79.0167 69° East 500 575 45,000  Level Toronto Center
08:31PM 43.8667 -78.8500 61° Northeast 500 575 45,000  Level Toronto Center
08:32PM 43.9167 -78.6667 69° East 500 575 45,000  Level Toronto Center
08:33PM 43.9667 -78.5000 67° East 500 575 45,000  Level Toronto Center
08:34PM 44.0167 -78.3167 69° East 500 575 45,000  Level Toronto Center
08:35PM 44.0667 -78.1167 71° East 510 587 45,000  Level Toronto Center
08:36PM 44.1167 -77.9667 65° Northeast 510 587 45,000  Level Toronto Center
08:37PM 44.1833 -77.7500 67° East 510 587 45,000  Level Toronto Center
08:38PM 44.2333 -77.5833 67° East 510 587 45,000  Level Toronto Center
08:39PM 44.3000 -77.4000 63° Northeast 510 587 45,000  Level Toronto Center
08:40PM 44.3333 -77.2000 77° East 500 575 45,000  Level Toronto Center
08:41PM 44.3833 -77.0167 69° East 510 587 45,000  Level Toronto Center
08:42PM 44.4500 -76.8667 58° Northeast 510 587 45,000  Level Montreal Center
08:43PM 44.5000 -76.6500 72° East 510 587 45,000  Level Montreal Center
08:44PM 44.5500 -76.4833 67° East 510 587 45,000 -600 Level Montreal Center
08:45PM 44.6000 -76.2667 72° East 510 587 43,900 -1,920 Descending Montreal Center
08:46PM 44.6500 -76.1167 65° Northeast 510 587 41,200 -2,700 Descending Montreal Center
08:47PM 44.7000 -75.9167 71° East 510 587 38,500 -2,760 Descending Montreal Center
08:48PM 44.7667 -75.7333 63° Northeast 510 587 35,700 -2,820 Descending Montreal Center
08:49PM 44.8333 -75.5667 61° Northeast 520 598 32,900 -2,880 Descending Montreal Center
08:50PM 44.8833 -75.3500 72° East 530 610 30,000 -2,760 Descending Montreal Center
08:51PM 44.9500 -75.1833 60° Northeast 510 587 27,400 -2,700 Descending Montreal Center
08:52PM 45.0167 -75.0000 63° Northeast 490 564 24,700 -2,640 Descending Montreal Center
08:53PM 45.0667 -74.8333 67° East 470 541 22,200 -2,580 Descending Montreal Center
08:54PM 45.1167 -74.6667 67° East 450 518 19,600 -2,400 Descending Montreal Center
08:55PM 45.1667 -74.5167 65° Northeast 430 495 17,500 -2,160 Descending Montreal Center
08:56PM 45.2167 -74.3500 67° East 410 472 15,300 -2,100 Descending Montreal Center
08:57PM 45.2833 -74.2333 51° Northeast 390 449 13,400 -1,800 Descending Montreal Center
08:58PM 45.3333 -74.1167 59° Northeast 360 414 11,700 -1,740 Descending Montreal Center
08:59PM 45.3833 -74.0167 55° Northeast 320 368 10,000 -1,500 Descending Montreal Center
09:00PM 45.4333 -73.9167 55° Northeast 300 345 8,700 -1,260 Descending Montreal Center
09:01PM 45.5000 -73.8333 41° Northeast 270 311 7,500 -1,500 Descending Montreal Center
09:02PM 45.5500 -73.7833 35° Northeast 270 311 5,800 -1,740 Descending Montreal Center
09:03PM 45.6000 -73.7000 49° Northeast 270 311 4,100 -1,080 Descending Montreal Center
09:04PM 45.6333 -73.6000 64° Northeast 250 288 3,700 -540 Descending Montreal Center
09:05PM 45.5833 -73.5500 145° Southeast 210 242 3,100 -660 Descending Montreal Center
09:06PM 45.5500 -73.6000 226° Southwest 160 184 2,400 -720 Descending Montreal Center
09:07PM 45.5167 -73.6167 199° South 140 161 1,700 -780 Descending Montreal Center
09:08PM 45.5000 -73.6667 245° Southwest 130 150 900 -720 Descending Montreal Center
09:09PM 45.4667 -73.7000 215° Southwest 120 138 300 -420 Descending Montreal Center
09:10PM 45.4500 -73.7167 215° Southwest 30 35 100 -240 Descending Montreal Center